createdAt,value
2023-02-05T00:02:07.331Z,29.53
2023-02-05T00:04:34.968Z,29.57
2023-02-05T00:07:02.685Z,29.48
2023-02-05T00:09:30.148Z,29.45
2023-02-05T00:11:57.861Z,29.66
2023-02-05T00:14:25.881Z,29.61
2023-02-05T00:16:53.552Z,29.59
2023-02-05T00:19:20.906Z,29.58
2023-02-05T00:21:49.826Z,29.61
2023-02-05T00:24:17.311Z,29.62
2023-02-05T00:26:44.533Z,29.51
2023-02-05T00:29:12.108Z,29.52
2023-02-05T00:31:40.437Z,29.46
2023-02-05T00:34:09.487Z,29.37
2023-02-05T00:36:36.841Z,29.47
2023-02-05T00:39:04.509Z,29.53
2023-02-05T00:41:31.776Z,29.37
2023-02-05T00:43:59.063Z,29.31
2023-02-05T00:46:27.442Z,29.47
2023-02-05T00:48:54.885Z,29.57
2023-02-05T00:51:22.376Z,29.55
2023-02-05T00:53:49.644Z,29.37
2023-02-05T00:56:16.902Z,29.52
2023-02-05T00:58:47.924Z,29.53
2023-02-05T01:01:15.893Z,29.55
2023-02-05T01:03:43.505Z,29.60
2023-02-05T01:06:11.222Z,29.47
2023-02-05T01:08:39.984Z,29.50
2023-02-05T01:11:09.557Z,29.54
2023-02-05T01:13:37.725Z,29.66
2023-02-05T01:16:05.588Z,29.66
2023-02-05T01:18:33.013Z,29.62
2023-02-05T01:21:00.411Z,29.18
2023-02-05T01:23:27.749Z,29.72
2023-02-05T01:25:54.982Z,29.81
2023-02-05T01:28:22.352Z,29.82
2023-02-05T01:30:50.320Z,29.56
2023-02-05T01:33:18.182Z,29.44
2023-02-05T01:35:45.900Z,29.63
2023-02-05T01:38:13.503Z,29.68
2023-02-05T01:40:41.324Z,29.63
2023-02-05T01:43:14.037Z,29.62
2023-02-05T01:45:50.878Z,29.66
2023-02-05T01:48:20.699Z,29.43
2023-02-05T01:50:50.998Z,29.41
2023-02-05T01:53:37.277Z,29.47
2023-02-05T01:56:14.200Z,29.50
2023-02-05T01:58:44.018Z,29.62
2023-02-05T02:01:11.384Z,29.46
2023-02-05T02:03:40.525Z,29.49
2023-02-05T02:06:09.698Z,29.57
2023-02-05T02:08:37.011Z,29.67
2023-02-05T02:11:06.244Z,29.58
2023-02-05T02:13:35.650Z,29.58
2023-02-05T02:16:06.007Z,29.51
2023-02-05T02:18:35.201Z,29.42
2023-02-05T02:21:02.409Z,29.48
2023-02-05T02:23:46.553Z,29.47
2023-02-05T02:26:26.466Z,29.53
2023-02-05T02:29:00.333Z,29.45
2023-02-05T02:31:32.620Z,29.54
2023-02-05T02:33:59.881Z,29.76
2023-02-05T02:36:45.995Z,29.58
2023-02-05T02:39:22.324Z,29.40
2023-02-05T02:41:58.746Z,29.40
2023-02-05T02:44:38.497Z,29.41
2023-02-05T02:47:20.740Z,29.58
2023-02-05T02:49:53.651Z,29.77
2023-02-05T02:52:22.520Z,29.41
2023-02-05T02:54:50.901Z,29.47
2023-02-05T02:57:21.758Z,29.47
2023-02-05T02:59:52.074Z,29.46
2023-02-05T03:02:19.826Z,29.45
2023-02-05T03:04:56.049Z,29.39
2023-02-05T03:07:27.912Z,29.59
2023-02-05T03:10:02.618Z,29.50
2023-02-05T03:12:30.860Z,29.75
2023-02-05T03:14:58.245Z,29.75
2023-02-05T03:17:26.876Z,29.44
2023-02-05T03:19:59.847Z,29.47
2023-02-05T03:22:27.494Z,29.52
2023-02-05T03:24:54.794Z,29.54
2023-02-05T03:27:22.918Z,29.49
2023-02-05T03:29:51.368Z,29.44
2023-02-05T03:32:30.891Z,29.42
2023-02-05T03:35:02.299Z,29.67
2023-02-05T03:37:36.477Z,29.60
2023-02-05T03:40:31.938Z,29.46
2023-02-05T03:43:06.097Z,29.75
2023-02-05T03:45:40.192Z,29.58
2023-02-05T03:48:13.550Z,29.36
2023-02-05T03:50:43.672Z,29.57
2023-02-05T03:53:19.087Z,29.47
2023-02-05T03:55:51.080Z,29.62
2023-02-05T03:58:22.167Z,29.59
2023-02-05T04:00:49.538Z,29.59
2023-02-05T04:03:17.255Z,29.48
2023-02-05T04:05:44.657Z,29.46
2023-02-05T04:08:12.587Z,29.36
2023-02-05T04:10:45.064Z,29.33
2023-02-05T04:13:13.951Z,29.46
2023-02-05T04:15:42.663Z,29.57
2023-02-05T04:18:11.914Z,29.18
2023-02-05T04:20:39.226Z,29.30
2023-02-05T04:23:08.281Z,29.33
2023-02-05T04:25:37.470Z,29.15
2023-02-05T04:28:06.541Z,29.20
2023-02-05T04:30:34.988Z,29.52
2023-02-05T04:33:03.566Z,29.60
2023-02-05T04:35:31.466Z,29.44
2023-02-05T04:37:58.799Z,29.40
2023-02-05T04:40:26.599Z,29.60
2023-02-05T04:42:53.796Z,29.40
2023-02-05T04:45:21.552Z,29.34
2023-02-05T04:47:49.164Z,29.30
2023-02-05T04:50:16.507Z,29.26
2023-02-05T04:52:43.710Z,29.25
2023-02-05T04:55:11.034Z,29.28
2023-02-05T04:57:38.273Z,29.30
2023-02-05T05:00:05.854Z,29.30
2023-02-05T05:02:33.145Z,29.37
2023-02-05T05:05:00.487Z,29.31
2023-02-05T05:07:31.886Z,29.58
2023-02-05T05:10:01.188Z,29.48
2023-02-05T05:12:28.517Z,29.61
2023-02-05T05:14:55.730Z,29.71
2023-02-05T05:17:22.958Z,29.44
2023-02-05T05:19:50.152Z,29.39
2023-02-05T05:22:17.470Z,29.48
2023-02-05T05:24:44.861Z,29.55
2023-02-05T05:27:12.049Z,29.48
2023-02-05T05:29:39.363Z,29.55
2023-02-05T05:32:06.961Z,29.26
2023-02-05T05:34:34.319Z,29.31
2023-02-05T05:37:01.538Z,29.53
2023-02-05T05:39:47.225Z,29.38
2023-02-05T05:42:33.144Z,29.23
2023-02-05T05:45:00.462Z,29.35
2023-02-05T05:47:27.660Z,29.41
2023-02-05T05:49:55.010Z,29.69
2023-02-05T05:52:22.246Z,29.36
2023-02-05T05:54:49.450Z,29.41
2023-02-05T05:57:16.677Z,29.23
2023-02-05T05:59:44.074Z,29.28
2023-02-05T06:02:11.347Z,29.25
2023-02-05T06:04:38.709Z,29.48
2023-02-05T06:07:06.087Z,29.50
2023-02-05T06:09:33.384Z,29.41
2023-02-05T06:12:00.567Z,29.34
2023-02-05T06:14:27.855Z,29.50
2023-02-05T06:16:55.926Z,29.63
2023-02-05T06:19:23.518Z,29.50
2023-02-05T06:21:50.774Z,29.56
2023-02-05T06:24:18.137Z,29.53
2023-02-05T06:26:45.312Z,29.53
2023-02-05T06:29:12.711Z,29.60
2023-02-05T06:31:40.052Z,29.72
2023-02-05T06:34:07.389Z,29.40
2023-02-05T06:36:34.890Z,29.31
2023-02-05T06:39:02.151Z,29.43
2023-02-05T06:41:29.361Z,29.47
2023-02-05T06:43:56.771Z,29.54
2023-02-05T06:46:23.990Z,29.54
2023-02-05T06:48:51.229Z,29.40
2023-02-05T06:51:18.542Z,29.40
2023-02-05T06:53:46.142Z,29.46
2023-02-05T06:56:13.411Z,29.53
2023-02-05T06:58:40.641Z,29.40
2023-02-05T07:01:07.916Z,29.69
2023-02-05T07:03:35.229Z,29.42
2023-02-05T07:06:03.650Z,29.26
2023-02-05T07:08:30.951Z,29.49
2023-02-05T07:10:58.369Z,29.47
2023-02-05T07:13:25.703Z,29.44
2023-02-05T07:15:52.921Z,29.36
2023-02-05T07:18:20.170Z,29.59
2023-02-05T07:20:48.307Z,29.36
2023-02-05T07:23:15.563Z,29.69
2023-02-05T07:25:42.759Z,29.71
2023-02-05T07:28:10.129Z,29.52
2023-02-05T07:30:37.597Z,29.51
2023-02-05T07:33:05.056Z,29.66
2023-02-05T07:35:35.579Z,29.65
2023-02-05T07:38:03.044Z,29.16
2023-02-05T07:40:30.266Z,29.08
2023-02-05T07:42:57.814Z,29.25
2023-02-05T07:45:25.102Z,29.53
2023-02-05T07:47:53.960Z,29.51
2023-02-05T07:50:21.313Z,29.55
2023-02-05T07:52:48.598Z,29.17
2023-02-05T07:55:15.913Z,29.18
2023-02-05T07:57:43.253Z,28.93
2023-02-05T08:00:10.816Z,28.98
2023-02-05T08:02:41.078Z,29.10
2023-02-05T08:05:08.625Z,29.07
2023-02-05T08:07:37.448Z,29.01
2023-02-05T08:10:04.900Z,29.24
2023-02-05T08:12:32.152Z,29.27
2023-02-05T08:14:59.485Z,29.07
2023-02-05T08:17:26.719Z,29.06
2023-02-05T08:19:53.968Z,29.24
2023-02-05T08:22:21.199Z,29.15
2023-02-05T08:24:48.521Z,29.15
2023-02-05T08:27:15.743Z,29.15
2023-02-05T08:29:42.935Z,29.12
2023-02-05T08:32:10.131Z,29.26
2023-02-05T08:34:38.309Z,29.11
2023-02-05T08:37:05.530Z,29.01
2023-02-05T08:39:32.814Z,29.06
2023-02-05T08:42:00.054Z,29.03
2023-02-05T08:44:28.057Z,29.41
2023-02-05T08:46:55.438Z,29.21
2023-02-05T08:49:22.871Z,29.37
2023-02-05T08:51:50.165Z,29.18
2023-02-05T08:54:17.588Z,29.17
2023-02-05T08:56:45.662Z,29.20
2023-02-05T08:59:12.963Z,29.04
2023-02-05T09:01:41.253Z,29.08
2023-02-05T09:04:11.082Z,29.07
2023-02-05T09:06:38.331Z,29.15
2023-02-05T09:09:05.528Z,29.10
2023-02-05T09:11:33.006Z,29.30
2023-02-05T09:14:00.286Z,29.30
2023-02-05T09:16:27.672Z,29.25
2023-02-05T09:18:55.904Z,29.40
2023-02-05T09:21:23.818Z,29.33
2023-02-05T09:23:51.859Z,29.35
2023-02-05T09:26:19.340Z,29.62
2023-02-05T09:28:46.767Z,29.52
2023-02-05T09:31:15.839Z,29.52
2023-02-05T09:33:46.329Z,29.44
2023-02-05T09:36:23.248Z,29.50
2023-02-05T09:39:01.979Z,29.52
2023-02-05T09:41:37.981Z,29.49
2023-02-05T09:44:05.415Z,29.54
2023-02-05T09:46:32.603Z,29.58
2023-02-05T09:49:21.614Z,29.53
2023-02-05T09:51:53.515Z,29.70
2023-02-05T09:54:24.270Z,29.86
2023-02-05T09:56:53.248Z,29.88
2023-02-05T09:59:22.084Z,29.85
2023-02-05T10:01:56.649Z,29.84
2023-02-05T10:04:25.226Z,29.78
2023-02-05T10:07:01.839Z,30.27
2023-02-05T10:09:39.901Z,30.03
2023-02-05T10:12:10.173Z,29.79
2023-02-05T10:14:40.480Z,29.68
2023-02-05T10:17:16.617Z,29.75
2023-02-05T10:19:46.999Z,29.73
2023-02-05T10:22:17.151Z,29.70
2023-02-05T10:24:47.447Z,29.70
2023-02-05T10:27:21.074Z,29.92
2023-02-05T10:30:12.659Z,29.76
2023-02-05T10:32:43.056Z,29.84
2023-02-05T10:35:13.419Z,29.81
2023-02-05T10:37:40.689Z,29.71
2023-02-05T10:40:12.210Z,29.73
2023-02-05T10:42:42.216Z,29.88
2023-02-05T10:45:12.322Z,29.75
2023-02-05T10:47:39.636Z,29.93
2023-02-05T10:50:14.427Z,30.03
2023-02-05T10:52:41.844Z,30.29
2023-02-05T10:55:12.217Z,30.13
2023-02-05T10:57:39.797Z,29.97
2023-02-05T11:00:14.416Z,29.87
2023-02-05T11:02:43.535Z,29.97
2023-02-05T11:05:21.520Z,29.88
2023-02-05T11:07:50.621Z,29.99
2023-02-05T11:10:27.721Z,29.84
2023-02-05T11:12:56.645Z,29.91
2023-02-05T11:15:28.148Z,29.98
2023-02-05T11:18:03.423Z,30.01
2023-02-05T11:20:30.699Z,29.94
2023-02-05T11:23:27.293Z,29.91
2023-02-05T11:26:01.860Z,29.93
2023-02-05T11:28:32.995Z,30.06
2023-02-05T11:31:21.759Z,29.96
2023-02-05T11:33:49.606Z,29.80
2023-02-05T11:36:22.717Z,30.11
2023-02-05T11:38:50.606Z,30.37
2023-02-05T11:41:28.369Z,30.30
2023-02-05T11:43:56.595Z,30.17
2023-02-05T11:46:25.517Z,29.73
2023-02-05T11:49:00.546Z,30.14
2023-02-05T11:51:36.783Z,30.12
2023-02-05T11:54:07.776Z,30.16
2023-02-05T11:56:35.022Z,27.36
2023-02-05T11:59:03.944Z,26.61
2023-02-05T12:01:34.175Z,29.53
2023-02-05T12:04:16.684Z,29.65
2023-02-05T12:06:50.491Z,29.73
2023-02-05T12:09:20.432Z,29.70
2023-02-05T12:12:23.294Z,29.70
2023-02-05T12:15:03.857Z,29.88
2023-02-05T12:17:31.262Z,29.83
2023-02-05T12:20:01.293Z,30.01
2023-02-05T12:22:50.529Z,30.03
2023-02-05T12:25:36.379Z,29.81
2023-02-05T12:28:12.889Z,29.77
2023-02-05T12:30:51.672Z,29.76
2023-02-05T12:33:23.926Z,29.88
2023-02-05T12:36:10.119Z,29.99
2023-02-05T12:38:50.005Z,29.97
2023-02-05T12:41:42.626Z,30.00
2023-02-05T12:44:16.273Z,29.86
2023-02-05T12:46:50.022Z,30.33
2023-02-05T12:49:20.320Z,30.59
2023-02-05T12:51:50.843Z,30.41
2023-02-05T12:54:39.628Z,30.04
2023-02-05T12:57:08.834Z,30.32
2023-02-05T12:59:41.419Z,30.14
2023-02-05T13:02:32.328Z,30.19
2023-02-05T13:05:18.706Z,30.12
2023-02-05T13:07:50.878Z,30.09
2023-02-05T13:10:22.307Z,30.21
2023-02-05T13:12:52.659Z,30.14
2023-02-05T13:15:22.472Z,30.40
2023-02-05T13:18:01.520Z,30.21
2023-02-05T13:20:48.729Z,30.23
2023-02-05T13:23:35.883Z,30.29
2023-02-05T13:26:16.703Z,30.23
2023-02-05T13:28:47.643Z,30.34
2023-02-05T13:31:15.003Z,30.48
2023-02-05T13:33:43.441Z,30.23
2023-02-05T13:36:27.269Z,30.24
2023-02-05T13:39:13.974Z,30.05
2023-02-05T13:41:53.637Z,30.29
2023-02-05T13:44:23.766Z,30.36
2023-02-05T13:46:51.128Z,30.19
2023-02-05T13:49:36.860Z,30.23
2023-02-05T13:52:13.369Z,30.24
2023-02-05T13:54:59.170Z,30.24
2023-02-05T13:57:41.557Z,30.27
2023-02-05T14:00:12.488Z,30.52
2023-02-05T14:02:41.714Z,30.71
2023-02-05T14:05:10.686Z,30.55
2023-02-05T14:07:48.141Z,30.48
2023-02-05T14:10:29.177Z,30.53
2023-02-05T14:13:13.427Z,30.70
2023-02-05T14:15:44.495Z,30.31
2023-02-05T14:18:13.129Z,30.38
2023-02-05T14:20:45.616Z,30.43
2023-02-05T14:23:17.168Z,30.15
2023-02-05T14:26:02.821Z,30.19
2023-02-05T14:28:30.182Z,30.44
2023-02-05T14:31:01.024Z,30.75
2023-02-05T14:33:30.463Z,30.47
2023-02-05T14:35:58.406Z,30.39
2023-02-05T14:38:31.214Z,30.33
2023-02-05T14:41:09.271Z,30.45
2023-02-05T14:43:46.604Z,30.52
2023-02-05T14:46:31.640Z,30.33
2023-02-05T14:49:00.716Z,30.23
2023-02-05T14:51:34.119Z,30.52
2023-02-05T14:54:04.871Z,30.61
2023-02-05T14:56:40.550Z,30.73
2023-02-05T14:59:19.556Z,30.43
2023-02-05T15:01:50.345Z,30.43
2023-02-05T15:04:41.893Z,30.39
2023-02-05T15:07:14.778Z,30.21
2023-02-05T15:09:46.532Z,30.28
2023-02-05T15:12:22.574Z,30.27
2023-02-05T15:14:53.706Z,30.24
2023-02-05T15:17:29.979Z,30.18
2023-02-05T15:20:15.763Z,30.37
2023-02-05T15:22:46.556Z,30.61
2023-02-05T15:25:30.388Z,30.68
2023-02-05T15:27:59.946Z,30.47
2023-02-05T15:30:30.466Z,30.52
2023-02-05T15:33:08.421Z,30.60
2023-02-05T15:35:37.720Z,30.77
2023-02-05T15:38:11.154Z,30.72
2023-02-05T15:40:40.418Z,30.96
2023-02-05T15:43:16.503Z,31.26
2023-02-05T15:45:47.512Z,30.82
2023-02-05T15:48:19.236Z,30.71
2023-02-05T15:50:56.411Z,30.76
2023-02-05T15:53:41.619Z,30.95
2023-02-05T15:56:20.873Z,30.85
2023-02-05T15:58:48.207Z,31.07
2023-02-05T16:01:34.039Z,30.84
2023-02-05T16:04:01.822Z,30.87
2023-02-05T16:06:30.533Z,30.92
2023-02-05T16:08:57.842Z,30.82
2023-02-05T16:11:32.778Z,31.03
2023-02-05T16:14:14.637Z,30.98
2023-02-05T16:16:47.530Z,31.03
2023-02-05T16:19:19.898Z,30.99
2023-02-05T16:21:50.753Z,30.66
2023-02-05T16:24:22.891Z,30.61
2023-02-05T16:26:54.649Z,30.84
2023-02-05T16:29:47.080Z,30.88
2023-02-05T16:32:21.904Z,30.63
2023-02-05T16:34:49.784Z,30.77
2023-02-05T16:37:18.396Z,30.69
2023-02-05T16:39:49.719Z,30.80
2023-02-05T16:42:29.254Z,30.81
2023-02-05T16:45:08.996Z,30.70
2023-02-05T16:47:37.022Z,30.88
2023-02-05T16:50:23.141Z,30.81
2023-02-05T16:52:59.674Z,30.99
2023-02-05T16:55:26.918Z,30.84
2023-02-05T16:57:55.498Z,30.83
2023-02-05T17:00:25.216Z,30.95
2023-02-05T17:02:53.460Z,30.76
2023-02-05T17:05:25.474Z,30.66
2023-02-05T17:07:57.263Z,30.67
2023-02-05T17:10:24.755Z,30.84
2023-02-05T17:12:56.522Z,30.62
2023-02-05T17:15:29.224Z,30.68
2023-02-05T17:17:58.111Z,30.60
2023-02-05T17:20:26.602Z,30.44
2023-02-05T17:22:59.971Z,30.55
2023-02-05T17:25:28.540Z,30.48
2023-02-05T17:27:56.057Z,30.68
2023-02-05T17:30:23.522Z,30.59
2023-02-05T17:32:51.249Z,30.53
2023-02-05T17:35:19.384Z,30.44
2023-02-05T17:37:46.606Z,30.51
2023-02-05T17:40:14.452Z,30.12
2023-02-05T17:42:42.018Z,30.29
2023-02-05T17:45:12.304Z,30.12
2023-02-05T17:47:39.566Z,30.09
2023-02-05T17:50:08.053Z,30.24
2023-02-05T17:52:35.605Z,30.09
2023-02-05T17:55:03.328Z,30.09
2023-02-05T17:57:33.966Z,30.19
2023-02-05T18:00:01.578Z,30.38
2023-02-05T18:02:39.144Z,30.28
2023-02-05T18:05:06.723Z,30.12
2023-02-05T18:07:35.035Z,30.37
2023-02-05T18:10:03.259Z,30.40
2023-02-05T18:12:30.606Z,30.13
2023-02-05T18:14:58.253Z,30.18
2023-02-05T18:17:25.396Z,30.22
2023-02-05T18:19:52.770Z,30.25
2023-02-05T18:22:19.977Z,30.41
2023-02-05T18:24:47.298Z,30.50
2023-02-05T18:27:14.700Z,30.49
2023-02-05T18:29:43.767Z,30.35
2023-02-05T18:32:18.075Z,30.23
2023-02-05T18:34:46.452Z,30.15
2023-02-05T18:37:15.144Z,30.19
2023-02-05T18:39:42.963Z,30.30
2023-02-05T18:42:12.858Z,30.19
2023-02-05T18:44:40.205Z,30.41
2023-02-05T18:47:07.554Z,30.37
2023-02-05T18:49:35.163Z,30.45
2023-02-05T18:52:02.777Z,30.21
2023-02-05T18:54:30.035Z,30.43
2023-02-05T18:56:57.320Z,30.35
2023-02-05T18:59:25.805Z,30.50
2023-02-05T19:01:53.716Z,30.38
2023-02-05T19:04:21.206Z,30.29
2023-02-05T19:06:53.575Z,30.20
2023-02-05T19:09:22.078Z,30.07
2023-02-05T19:11:49.541Z,30.07
2023-02-05T19:14:18.040Z,30.10
2023-02-05T19:16:45.509Z,30.07
2023-02-05T19:19:14.368Z,30.22
2023-02-05T19:21:42.454Z,29.97
2023-02-05T19:24:11.648Z,30.21
2023-02-05T19:26:40.145Z,30.04
2023-02-05T19:29:08.129Z,30.19
2023-02-05T19:31:36.657Z,30.17
2023-02-05T19:34:04.342Z,30.08
2023-02-05T19:36:32.177Z,30.14
2023-02-05T19:39:00.209Z,30.46
2023-02-05T19:41:28.231Z,30.11
2023-02-05T19:43:59.314Z,30.33
2023-02-05T19:46:28.390Z,30.31
2023-02-05T19:48:56.537Z,30.30
2023-02-05T19:51:23.893Z,30.44
2023-02-05T19:53:51.154Z,30.34
2023-02-05T19:56:20.074Z,30.18
2023-02-05T19:58:48.554Z,30.13
2023-02-05T20:01:22.100Z,30.22
2023-02-05T20:03:50.481Z,30.20
2023-02-05T20:06:19.122Z,30.07
2023-02-05T20:08:46.386Z,30.24
2023-02-05T20:11:14.211Z,30.14
2023-02-05T20:13:42.020Z,30.28
2023-02-05T20:16:11.460Z,30.29
2023-02-05T20:18:39.657Z,30.37
2023-02-05T20:21:07.300Z,30.43
2023-02-05T20:23:34.692Z,30.41
2023-02-05T20:26:05.707Z,30.39
2023-02-05T20:28:33.851Z,30.30
2023-02-05T20:31:19.608Z,30.44
2023-02-05T20:33:50.083Z,30.53
2023-02-05T20:36:17.294Z,30.33
2023-02-05T20:38:44.590Z,30.51
2023-02-05T20:41:18.316Z,30.43
2023-02-05T20:43:45.600Z,30.66
2023-02-05T20:46:12.843Z,30.49
2023-02-05T20:48:42.512Z,30.36
2023-02-05T20:51:14.048Z,30.31
2023-02-05T20:53:41.520Z,30.32
2023-02-05T20:56:10.207Z,30.62
2023-02-05T20:58:37.569Z,30.43
2023-02-05T21:01:09.307Z,30.75
2023-02-05T21:03:37.797Z,30.15
2023-02-05T21:06:05.445Z,30.30
2023-02-05T21:08:32.677Z,30.65
2023-02-05T21:11:01.060Z,30.69
2023-02-05T21:13:28.337Z,30.65
2023-02-05T21:15:56.903Z,30.36
2023-02-05T21:18:24.947Z,30.57
2023-02-05T21:20:52.461Z,30.29
2023-02-05T21:23:19.785Z,30.45
2023-02-05T21:25:47.367Z,30.29
2023-02-05T21:28:14.768Z,30.41
2023-02-05T21:30:43.138Z,30.54
2023-02-05T21:33:10.693Z,30.40
2023-02-05T21:35:38.872Z,30.32
2023-02-05T21:38:06.069Z,30.42
2023-02-05T21:40:33.964Z,30.43
2023-02-05T21:43:01.402Z,30.45
2023-02-05T21:45:28.624Z,30.84
2023-02-05T21:47:55.883Z,30.34
2023-02-05T21:50:23.153Z,30.29
2023-02-05T21:52:50.459Z,30.69
2023-02-05T21:55:17.820Z,30.70
2023-02-05T21:57:45.094Z,30.75
2023-02-05T22:00:12.840Z,30.25
2023-02-05T22:02:40.355Z,30.48
2023-02-05T22:05:07.856Z,30.84
2023-02-05T22:07:35.423Z,30.42
2023-02-05T22:10:02.661Z,30.91
2023-02-05T22:12:29.854Z,30.80
2023-02-05T22:14:57.047Z,30.34
2023-02-05T22:17:24.674Z,30.62
2023-02-05T22:19:53.147Z,30.49
2023-02-05T22:22:20.371Z,30.37
2023-02-05T22:24:47.610Z,30.40
2023-02-05T22:27:15.035Z,30.35
2023-02-05T22:29:42.244Z,30.65
2023-02-05T22:32:11.162Z,30.59
2023-02-05T22:34:38.398Z,30.71
2023-02-05T22:37:05.708Z,30.51
2023-02-05T22:39:33.912Z,30.36
2023-02-05T22:42:01.535Z,30.22
2023-02-05T22:44:28.738Z,30.33
2023-02-05T22:46:56.215Z,30.08
2023-02-05T22:49:23.483Z,30.28
2023-02-05T22:51:51.643Z,30.39
2023-02-05T22:54:18.873Z,30.35
2023-02-05T22:56:46.287Z,30.52
2023-02-05T22:59:13.709Z,30.51
2023-02-05T23:01:41.134Z,30.40
2023-02-05T23:04:09.261Z,30.49
2023-02-05T23:06:37.978Z,30.54
2023-02-05T23:09:05.311Z,30.09
2023-02-05T23:11:33.169Z,30.03
2023-02-05T23:14:00.942Z,30.13
2023-02-05T23:16:29.964Z,30.16
2023-02-05T23:18:59.086Z,30.08
2023-02-05T23:21:27.035Z,30.24
2023-02-05T23:23:54.365Z,29.75
2023-02-05T23:26:28.974Z,29.96
2023-02-05T23:28:56.684Z,29.68
2023-02-05T23:31:31.015Z,30.22
2023-02-05T23:33:58.359Z,30.43
2023-02-05T23:36:25.798Z,30.06
2023-02-05T23:38:53.053Z,29.91
2023-02-05T23:41:35.887Z,30.24
2023-02-05T23:44:09.883Z,30.14
2023-02-05T23:46:38.264Z,30.43
2023-02-05T23:49:06.201Z,30.29
2023-02-05T23:51:33.973Z,30.28
2023-02-05T23:54:01.275Z,30.17
2023-02-05T23:56:29.574Z,30.30
2023-02-05T23:58:56.766Z,30.03
